sensor_id;sensor_type;location;lat;lon;timestamp;P1;durP1;ratioP1;P2;durP2;ratioP2
28625;SDS011;18905;42.668;23.364;2023-03-03T00:00:40;10.73;;;4.95;;
28625;SDS011;18905;42.668;23.364;2023-03-03T00:03:06;8.77;;;5.38;;
28625;SDS011;18905;42.668;23.364;2023-03-03T00:05:34;8.18;;;4.72;;
28625;SDS011;18905;42.668;23.364;2023-03-03T00:08:00;8.80;;;5.82;;
28625;SDS011;18905;42.668;23.364;2023-03-03T00:10:27;10.00;;;4.95;;
28625;SDS011;18905;42.668;23.364;2023-03-03T00:12:52;7.65;;;4.97;;
28625;SDS011;18905;42.668;23.364;2023-03-03T00:15:19;8.32;;;5.80;;
28625;SDS011;18905;42.668;23.364;2023-03-03T00:17:47;8.43;;;5.53;;
28625;SDS011;18905;42.668;23.364;2023-03-03T00:25:44;8.73;;;6.20;;
28625;SDS011;18905;42.668;23.364;2023-03-03T00:30:48;9.57;;;6.75;;
28625;SDS011;18905;42.668;23.364;2023-03-03T00:33:27;8.40;;;5.78;;
28625;SDS011;18905;42.668;23.364;2023-03-03T00:35:58;18.05;;;7.45;;
28625;SDS011;18905;42.668;23.364;2023-03-03T00:38:47;10.95;;;6.65;;
28625;SDS011;18905;42.668;23.364;2023-03-03T00:41:23;11.27;;;7.43;;
28625;SDS011;18905;42.668;23.364;2023-03-03T00:43:50;9.57;;;6.38;;
28625;SDS011;18905;42.668;23.364;2023-03-03T00:46:16;12.43;;;8.07;;
28625;SDS011;18905;42.668;23.364;2023-03-03T00:48:43;14.25;;;7.70;;
28625;SDS011;18905;42.668;23.364;2023-03-03T00:51:18;12.57;;;7.47;;
28625;SDS011;18905;42.668;23.364;2023-03-03T00:53:45;11.55;;;7.07;;
28625;SDS011;18905;42.668;23.364;2023-03-03T00:56:10;9.77;;;6.75;;
28625;SDS011;18905;42.668;23.364;2023-03-03T00:58:35;12.07;;;6.47;;
28625;SDS011;18905;42.668;23.364;2023-03-03T01:01:01;11.15;;;6.80;;
28625;SDS011;18905;42.668;23.364;2023-03-03T01:03:26;9.70;;;6.00;;
28625;SDS011;18905;42.668;23.364;2023-03-03T01:05:52;11.07;;;6.55;;
28625;SDS011;18905;42.668;23.364;2023-03-03T01:08:18;9.90;;;6.22;;
28625;SDS011;18905;42.668;23.364;2023-03-03T01:10:49;13.63;;;6.82;;
28625;SDS011;18905;42.668;23.364;2023-03-03T01:13:17;11.02;;;6.72;;
28625;SDS011;18905;42.668;23.364;2023-03-03T01:15:48;11.85;;;7.32;;
28625;SDS011;18905;42.668;23.364;2023-03-03T01:18:14;14.13;;;8.52;;
28625;SDS011;18905;42.668;23.364;2023-03-03T01:20:40;12.80;;;7.55;;
28625;SDS011;18905;42.668;23.364;2023-03-03T01:23:06;15.48;;;7.88;;
28625;SDS011;18905;42.668;23.364;2023-03-03T01:25:32;14.25;;;7.80;;
28625;SDS011;18905;42.668;23.364;2023-03-03T01:27:57;11.77;;;7.20;;
28625;SDS011;18905;42.668;23.364;2023-03-03T01:30:23;10.73;;;5.55;;
28625;SDS011;18905;42.668;23.364;2023-03-03T01:32:49;13.07;;;7.55;;
28625;SDS011;18905;42.668;23.364;2023-03-03T01:35:15;15.48;;;7.47;;
28625;SDS011;18905;42.668;23.364;2023-03-03T01:37:41;16.70;;;7.50;;
28625;SDS011;18905;42.668;23.364;2023-03-03T01:40:10;13.82;;;7.88;;
28625;SDS011;18905;42.668;23.364;2023-03-03T01:42:42;13.43;;;6.57;;
28625;SDS011;18905;42.668;23.364;2023-03-03T01:45:15;16.70;;;7.78;;
28625;SDS011;18905;42.668;23.364;2023-03-03T01:47:56;10.60;;;6.70;;
28625;SDS011;18905;42.668;23.364;2023-03-03T01:50:27;12.07;;;6.68;;
28625;SDS011;18905;42.668;23.364;2023-03-03T01:53:00;12.18;;;7.53;;
28625;SDS011;18905;42.668;23.364;2023-03-03T01:55:30;14.32;;;7.18;;
28625;SDS011;18905;42.668;23.364;2023-03-03T01:58:04;11.70;;;6.63;;
28625;SDS011;18905;42.668;23.364;2023-03-03T02:00:33;9.60;;;6.30;;
28625;SDS011;18905;42.668;23.364;2023-03-03T02:03:02;11.75;;;7.25;;
28625;SDS011;18905;42.668;23.364;2023-03-03T02:05:28;11.30;;;6.43;;
28625;SDS011;18905;42.668;23.364;2023-03-03T02:07:54;11.30;;;6.78;;
28625;SDS011;18905;42.668;23.364;2023-03-03T02:10:20;10.40;;;5.97;;
28625;SDS011;18905;42.668;23.364;2023-03-03T02:12:50;10.60;;;6.28;;
28625;SDS011;18905;42.668;23.364;2023-03-03T02:15:19;11.40;;;6.97;;
28625;SDS011;18905;42.668;23.364;2023-03-03T02:17:48;11.52;;;5.93;;
28625;SDS011;18905;42.668;23.364;2023-03-03T02:22:54;10.55;;;6.32;;
28625;SDS011;18905;42.668;23.364;2023-03-03T02:25:33;9.75;;;6.60;;
28625;SDS011;18905;42.668;23.364;2023-03-03T02:28:09;11.00;;;6.63;;
28625;SDS011;18905;42.668;23.364;2023-03-03T02:30:38;10.23;;;6.85;;
28625;SDS011;18905;42.668;23.364;2023-03-03T02:33:04;10.63;;;6.60;;
28625;SDS011;18905;42.668;23.364;2023-03-03T02:40:47;12.40;;;7.40;;
28625;SDS011;18905;42.668;23.364;2023-03-03T02:43:25;14.50;;;7.95;;
28625;SDS011;18905;42.668;23.364;2023-03-03T02:45:53;12.38;;;8.02;;
28625;SDS011;18905;42.668;23.364;2023-03-03T02:48:19;13.93;;;8.98;;
28625;SDS011;18905;42.668;23.364;2023-03-03T02:50:44;13.35;;;8.05;;
28625;SDS011;18905;42.668;23.364;2023-03-03T02:53:10;15.23;;;7.88;;
28625;SDS011;18905;42.668;23.364;2023-03-03T02:55:35;13.70;;;8.85;;
28625;SDS011;18905;42.668;23.364;2023-03-03T02:58:00;12.70;;;8.48;;
28625;SDS011;18905;42.668;23.364;2023-03-03T03:00:26;13.80;;;8.85;;
28625;SDS011;18905;42.668;23.364;2023-03-03T03:02:51;13.68;;;8.98;;
28625;SDS011;18905;42.668;23.364;2023-03-03T03:05:17;14.30;;;8.43;;
28625;SDS011;18905;42.668;23.364;2023-03-03T03:07:42;13.98;;;8.70;;
28625;SDS011;18905;42.668;23.364;2023-03-03T03:10:08;12.80;;;8.00;;
28625;SDS011;18905;42.668;23.364;2023-03-03T03:12:33;13.82;;;7.20;;
28625;SDS011;18905;42.668;23.364;2023-03-03T03:14:59;18.13;;;8.88;;
28625;SDS011;18905;42.668;23.364;2023-03-03T03:17:24;13.75;;;8.55;;
28625;SDS011;18905;42.668;23.364;2023-03-03T03:19:50;14.30;;;9.05;;
28625;SDS011;18905;42.668;23.364;2023-03-03T03:22:15;16.27;;;9.13;;
28625;SDS011;18905;42.668;23.364;2023-03-03T03:24:41;17.15;;;9.63;;
28625;SDS011;18905;42.668;23.364;2023-03-03T03:27:06;17.98;;;10.75;;
28625;SDS011;18905;42.668;23.364;2023-03-03T03:29:32;18.08;;;10.05;;
28625;SDS011;18905;42.668;23.364;2023-03-03T03:31:58;22.27;;;11.35;;
28625;SDS011;18905;42.668;23.364;2023-03-03T03:34:23;20.17;;;11.90;;
28625;SDS011;18905;42.668;23.364;2023-03-03T03:36:49;20.67;;;11.80;;
28625;SDS011;18905;42.668;23.364;2023-03-03T03:39:14;26.52;;;12.63;;
28625;SDS011;18905;42.668;23.364;2023-03-03T03:41:40;21.85;;;12.23;;
28625;SDS011;18905;42.668;23.364;2023-03-03T03:44:05;25.63;;;13.10;;
28625;SDS011;18905;42.668;23.364;2023-03-03T03:46:30;25.25;;;13.02;;
28625;SDS011;18905;42.668;23.364;2023-03-03T03:48:56;27.63;;;13.18;;
28625;SDS011;18905;42.668;23.364;2023-03-03T03:51:21;29.85;;;14.73;;
28625;SDS011;18905;42.668;23.364;2023-03-03T03:53:47;28.40;;;13.60;;
28625;SDS011;18905;42.668;23.364;2023-03-03T03:56:12;20.67;;;11.57;;
28625;SDS011;18905;42.668;23.364;2023-03-03T03:58:39;18.42;;;11.50;;
28625;SDS011;18905;42.668;23.364;2023-03-03T04:01:06;22.80;;;11.45;;
28625;SDS011;18905;42.668;23.364;2023-03-03T04:03:32;22.00;;;12.10;;
28625;SDS011;18905;42.668;23.364;2023-03-03T04:05:58;22.55;;;12.27;;
28625;SDS011;18905;42.668;23.364;2023-03-03T04:08:24;19.30;;;11.27;;
28625;SDS011;18905;42.668;23.364;2023-03-03T04:10:49;21.92;;;12.85;;
28625;SDS011;18905;42.668;23.364;2023-03-03T04:13:14;21.20;;;13.07;;
28625;SDS011;18905;42.668;23.364;2023-03-03T04:15:40;27.73;;;13.75;;
28625;SDS011;18905;42.668;23.364;2023-03-03T04:18:06;23.60;;;12.02;;
28625;SDS011;18905;42.668;23.364;2023-03-03T04:20:31;25.75;;;12.95;;
28625;SDS011;18905;42.668;23.364;2023-03-03T04:22:57;28.02;;;12.65;;
28625;SDS011;18905;42.668;23.364;2023-03-03T04:25:22;29.42;;;13.60;;
28625;SDS011;18905;42.668;23.364;2023-03-03T04:27:48;23.88;;;13.75;;
28625;SDS011;18905;42.668;23.364;2023-03-03T04:30:14;26.52;;;13.45;;
28625;SDS011;18905;42.668;23.364;2023-03-03T04:32:40;28.00;;;13.23;;
28625;SDS011;18905;42.668;23.364;2023-03-03T04:35:06;24.77;;;13.68;;
28625;SDS011;18905;42.668;23.364;2023-03-03T04:37:32;19.33;;;11.65;;
28625;SDS011;18905;42.668;23.364;2023-03-03T04:39:58;24.52;;;13.15;;
28625;SDS011;18905;42.668;23.364;2023-03-03T04:42:23;27.70;;;12.13;;
28625;SDS011;18905;42.668;23.364;2023-03-03T04:44:49;24.08;;;12.60;;
28625;SDS011;18905;42.668;23.364;2023-03-03T04:47:14;25.73;;;13.60;;
28625;SDS011;18905;42.668;23.364;2023-03-03T04:49:39;29.50;;;13.73;;
28625;SDS011;18905;42.668;23.364;2023-03-03T04:52:05;28.58;;;13.77;;
28625;SDS011;18905;42.668;23.364;2023-03-03T04:54:30;31.83;;;14.20;;
28625;SDS011;18905;42.668;23.364;2023-03-03T04:56:56;31.98;;;14.13;;
28625;SDS011;18905;42.668;23.364;2023-03-03T04:59:21;32.55;;;15.05;;
28625;SDS011;18905;42.668;23.364;2023-03-03T05:01:46;31.73;;;15.15;;
28625;SDS011;18905;42.668;23.364;2023-03-03T05:04:15;31.08;;;14.93;;
28625;SDS011;18905;42.668;23.364;2023-03-03T05:06:40;35.50;;;14.07;;
28625;SDS011;18905;42.668;23.364;2023-03-03T05:09:06;28.60;;;15.32;;
28625;SDS011;18905;42.668;23.364;2023-03-03T05:11:31;36.28;;;16.25;;
28625;SDS011;18905;42.668;23.364;2023-03-03T05:13:56;36.20;;;15.30;;
28625;SDS011;18905;42.668;23.364;2023-03-03T05:16:22;25.73;;;14.35;;
28625;SDS011;18905;42.668;23.364;2023-03-03T05:18:47;38.28;;;15.10;;
28625;SDS011;18905;42.668;23.364;2023-03-03T05:21:13;29.50;;;15.60;;
28625;SDS011;18905;42.668;23.364;2023-03-03T05:23:38;29.50;;;15.40;;
28625;SDS011;18905;42.668;23.364;2023-03-03T05:26:04;33.72;;;17.05;;
28625;SDS011;18905;42.668;23.364;2023-03-03T05:28:29;33.10;;;16.25;;
28625;SDS011;18905;42.668;23.364;2023-03-03T05:30:54;34.53;;;17.67;;
28625;SDS011;18905;42.668;23.364;2023-03-03T05:33:20;38.88;;;19.23;;
28625;SDS011;18905;42.668;23.364;2023-03-03T05:35:45;36.08;;;16.77;;
28625;SDS011;18905;42.668;23.364;2023-03-03T05:38:11;39.40;;;17.50;;
28625;SDS011;18905;42.668;23.364;2023-03-03T05:40:37;36.88;;;17.38;;
28625;SDS011;18905;42.668;23.364;2023-03-03T05:43:03;36.35;;;17.55;;
28625;SDS011;18905;42.668;23.364;2023-03-03T05:45:28;34.42;;;17.42;;
28625;SDS011;18905;42.668;23.364;2023-03-03T05:47:54;34.42;;;17.83;;
28625;SDS011;18905;42.668;23.364;2023-03-03T05:50:20;35.10;;;17.02;;
28625;SDS011;18905;42.668;23.364;2023-03-03T05:52:47;33.10;;;16.70;;
28625;SDS011;18905;42.668;23.364;2023-03-03T05:55:13;29.40;;;16.08;;
28625;SDS011;18905;42.668;23.364;2023-03-03T05:57:39;31.02;;;16.02;;
28625;SDS011;18905;42.668;23.364;2023-03-03T06:00:04;29.13;;;15.63;;
28625;SDS011;18905;42.668;23.364;2023-03-03T06:02:33;28.63;;;14.95;;
28625;SDS011;18905;42.668;23.364;2023-03-03T06:04:58;28.98;;;15.02;;
28625;SDS011;18905;42.668;23.364;2023-03-03T06:07:24;28.95;;;15.10;;
28625;SDS011;18905;42.668;23.364;2023-03-03T06:09:49;24.13;;;13.57;;
28625;SDS011;18905;42.668;23.364;2023-03-03T06:12:15;28.92;;;14.45;;
28625;SDS011;18905;42.668;23.364;2023-03-03T06:14:41;26.48;;;14.27;;
28625;SDS011;18905;42.668;23.364;2023-03-03T06:17:06;29.70;;;14.60;;
28625;SDS011;18905;42.668;23.364;2023-03-03T06:19:31;29.30;;;15.43;;
28625;SDS011;18905;42.668;23.364;2023-03-03T06:21:57;28.92;;;14.65;;
28625;SDS011;18905;42.668;23.364;2023-03-03T06:24:22;26.65;;;14.65;;
28625;SDS011;18905;42.668;23.364;2023-03-03T06:26:49;27.92;;;15.00;;
28625;SDS011;18905;42.668;23.364;2023-03-03T06:29:15;32.15;;;14.32;;
28625;SDS011;18905;42.668;23.364;2023-03-03T06:31:41;27.13;;;15.15;;
28625;SDS011;18905;42.668;23.364;2023-03-03T06:34:07;35.80;;;15.32;;
28625;SDS011;18905;42.668;23.364;2023-03-03T06:36:33;27.58;;;15.20;;
28625;SDS011;18905;42.668;23.364;2023-03-03T06:38:58;26.65;;;14.98;;
28625;SDS011;18905;42.668;23.364;2023-03-03T06:41:25;29.42;;;15.60;;
28625;SDS011;18905;42.668;23.364;2023-03-03T06:43:50;34.33;;;16.42;;
28625;SDS011;18905;42.668;23.364;2023-03-03T06:46:16;25.83;;;13.55;;
28625;SDS011;18905;42.668;23.364;2023-03-03T06:48:41;30.23;;;14.55;;
28625;SDS011;18905;42.668;23.364;2023-03-03T06:54:10;27.15;;;14.63;;
28625;SDS011;18905;42.668;23.364;2023-03-03T06:56:41;25.33;;;13.63;;
28625;SDS011;18905;42.668;23.364;2023-03-03T06:59:15;22.67;;;11.45;;
28625;SDS011;18905;42.668;23.364;2023-03-03T07:01:46;19.77;;;11.98;;
28625;SDS011;18905;42.668;23.364;2023-03-03T07:04:14;23.02;;;11.63;;
28625;SDS011;18905;42.668;23.364;2023-03-03T07:06:43;25.48;;;11.68;;
28625;SDS011;18905;42.668;23.364;2023-03-03T07:09:14;18.60;;;11.13;;
28625;SDS011;18905;42.668;23.364;2023-03-03T07:11:53;20.58;;;11.43;;
28625;SDS011;18905;42.668;23.364;2023-03-03T07:14:30;20.58;;;11.43;;
28625;SDS011;18905;42.668;23.364;2023-03-03T07:16:57;18.40;;;10.65;;
28625;SDS011;18905;42.668;23.364;2023-03-03T07:19:30;17.23;;;9.88;;
28625;SDS011;18905;42.668;23.364;2023-03-03T07:24:37;18.67;;;11.50;;
28625;SDS011;18905;42.668;23.364;2023-03-03T07:27:10;19.02;;;10.07;;
28625;SDS011;18905;42.668;23.364;2023-03-03T07:29:40;24.42;;;11.60;;
28625;SDS011;18905;42.668;23.364;2023-03-03T07:32:24;21.52;;;12.38;;
28625;SDS011;18905;42.668;23.364;2023-03-03T07:37:34;17.90;;;11.15;;
28625;SDS011;18905;42.668;23.364;2023-03-03T07:45:49;19.00;;;10.32;;
28625;SDS011;18905;42.668;23.364;2023-03-03T07:48:22;20.08;;;10.73;;
28625;SDS011;18905;42.668;23.364;2023-03-03T07:50:55;19.27;;;11.15;;
28625;SDS011;18905;42.668;23.364;2023-03-03T07:53:27;15.45;;;9.80;;
28625;SDS011;18905;42.668;23.364;2023-03-03T07:55:58;28.35;;;10.77;;
28625;SDS011;18905;42.668;23.364;2023-03-03T07:58:38;20.42;;;10.55;;
28625;SDS011;18905;42.668;23.364;2023-03-03T08:04:18;22.90;;;12.45;;
28625;SDS011;18905;42.668;23.364;2023-03-03T08:06:51;24.35;;;11.85;;
28625;SDS011;18905;42.668;23.364;2023-03-03T08:09:25;22.45;;;12.02;;
28625;SDS011;18905;42.668;23.364;2023-03-03T08:14:32;19.70;;;10.70;;
28625;SDS011;18905;42.668;23.364;2023-03-03T08:17:00;21.13;;;12.07;;
28625;SDS011;18905;42.668;23.364;2023-03-03T08:19:29;18.63;;;10.65;;
28625;SDS011;18905;42.668;23.364;2023-03-03T08:21:57;22.90;;;12.65;;
28625;SDS011;18905;42.668;23.364;2023-03-03T08:24:27;22.15;;;13.45;;
28625;SDS011;18905;42.668;23.364;2023-03-03T08:26:53;23.05;;;13.45;;
28625;SDS011;18905;42.668;23.364;2023-03-03T08:29:19;23.73;;;12.52;;
28625;SDS011;18905;42.668;23.364;2023-03-03T08:31:45;19.05;;;11.57;;
28625;SDS011;18905;42.668;23.364;2023-03-03T08:34:10;26.65;;;14.10;;
28625;SDS011;18905;42.668;23.364;2023-03-03T08:36:36;26.70;;;14.50;;
28625;SDS011;18905;42.668;23.364;2023-03-03T08:39:03;26.13;;;13.90;;
28625;SDS011;18905;42.668;23.364;2023-03-03T08:41:29;27.17;;;13.30;;
28625;SDS011;18905;42.668;23.364;2023-03-03T08:43:54;26.58;;;14.23;;
28625;SDS011;18905;42.668;23.364;2023-03-03T08:46:20;27.95;;;14.45;;
28625;SDS011;18905;42.668;23.364;2023-03-03T08:48:46;26.38;;;14.55;;
28625;SDS011;18905;42.668;23.364;2023-03-03T08:51:12;25.40;;;12.80;;
28625;SDS011;18905;42.668;23.364;2023-03-03T08:53:38;24.90;;;12.93;;
28625;SDS011;18905;42.668;23.364;2023-03-03T08:56:03;23.48;;;12.60;;
28625;SDS011;18905;42.668;23.364;2023-03-03T08:58:31;25.20;;;12.93;;
28625;SDS011;18905;42.668;23.364;2023-03-03T09:00:57;24.50;;;12.38;;
28625;SDS011;18905;42.668;23.364;2023-03-03T09:03:23;26.48;;;13.10;;
28625;SDS011;18905;42.668;23.364;2023-03-03T09:05:49;27.88;;;14.23;;
28625;SDS011;18905;42.668;23.364;2023-03-03T09:08:15;27.75;;;13.52;;
28625;SDS011;18905;42.668;23.364;2023-03-03T09:10:44;23.73;;;12.60;;
28625;SDS011;18905;42.668;23.364;2023-03-03T09:13:11;21.95;;;11.30;;
28625;SDS011;18905;42.668;23.364;2023-03-03T09:15:39;20.85;;;11.18;;
28625;SDS011;18905;42.668;23.364;2023-03-03T09:20:50;21.75;;;10.48;;
28625;SDS011;18905;42.668;23.364;2023-03-03T09:25:54;14.27;;;8.55;;
28625;SDS011;18905;42.668;23.364;2023-03-03T09:28:24;18.25;;;9.85;;
28625;SDS011;18905;42.668;23.364;2023-03-03T09:30:55;16.83;;;9.55;;
28625;SDS011;18905;42.668;23.364;2023-03-03T09:33:30;18.20;;;10.35;;
28625;SDS011;18905;42.668;23.364;2023-03-03T09:38:59;20.52;;;11.32;;
28625;SDS011;18905;42.668;23.364;2023-03-03T09:52:51;18.73;;;9.57;;
28625;SDS011;18905;42.668;23.364;2023-03-03T09:58:56;18.80;;;11.18;;
28625;SDS011;18905;42.668;23.364;2023-03-03T10:01:39;19.13;;;10.73;;
28625;SDS011;18905;42.668;23.364;2023-03-03T10:14:47;23.92;;;11.65;;
28625;SDS011;18905;42.668;23.364;2023-03-03T10:24:56;18.67;;;10.35;;
28625;SDS011;18905;42.668;23.364;2023-03-03T10:30:20;18.00;;;9.57;;
28625;SDS011;18905;42.668;23.364;2023-03-03T10:40:53;16.40;;;10.45;;
28625;SDS011;18905;42.668;23.364;2023-03-03T10:46:02;17.67;;;10.55;;
28625;SDS011;18905;42.668;23.364;2023-03-03T11:02:33;22.20;;;12.98;;
28625;SDS011;18905;42.668;23.364;2023-03-03T11:07:43;19.75;;;12.07;;
28625;SDS011;18905;42.668;23.364;2023-03-03T11:15:54;16.50;;;10.82;;
28625;SDS011;18905;42.668;23.364;2023-03-03T11:32:44;22.02;;;13.07;;
28625;SDS011;18905;42.668;23.364;2023-03-03T11:38:11;21.35;;;13.77;;
28625;SDS011;18905;42.668;23.364;2023-03-03T11:41:07;21.75;;;13.95;;
28625;SDS011;18905;42.668;23.364;2023-03-03T11:44:15;19.73;;;12.85;;
28625;SDS011;18905;42.668;23.364;2023-03-03T11:49:37;24.48;;;14.88;;
28625;SDS011;18905;42.668;23.364;2023-03-03T11:52:13;23.10;;;15.35;;
28625;SDS011;18905;42.668;23.364;2023-03-03T12:03:15;23.25;;;15.07;;
28625;SDS011;18905;42.668;23.364;2023-03-03T12:05:51;26.92;;;16.05;;
28625;SDS011;18905;42.668;23.364;2023-03-03T12:11:09;25.63;;;16.52;;
28625;SDS011;18905;42.668;23.364;2023-03-03T12:19:32;25.95;;;16.60;;
28625;SDS011;18905;42.668;23.364;2023-03-03T12:27:41;34.38;;;18.90;;
28625;SDS011;18905;42.668;23.364;2023-03-03T12:39:01;31.40;;;19.25;;
28625;SDS011;18905;42.668;23.364;2023-03-03T12:41:11;29.60;;;18.92;;
28625;SDS011;18905;42.668;23.364;2023-03-03T12:46:43;29.38;;;19.42;;
28625;SDS011;18905;42.668;23.364;2023-03-03T12:49:10;32.17;;;19.17;;
28625;SDS011;18905;42.668;23.364;2023-03-03T12:51:38;32.50;;;18.95;;
28625;SDS011;18905;42.668;23.364;2023-03-03T12:56:52;33.75;;;18.73;;
28625;SDS011;18905;42.668;23.364;2023-03-03T13:07:21;25.35;;;16.77;;
28625;SDS011;18905;42.668;23.364;2023-03-03T13:10:02;30.67;;;15.15;;
28625;SDS011;18905;42.668;23.364;2023-03-03T13:15:11;25.50;;;14.00;;
28625;SDS011;18905;42.668;23.364;2023-03-03T13:20:18;24.87;;;13.67;;
28625;SDS011;18905;42.668;23.364;2023-03-03T13:26:09;20.65;;;12.85;;
28625;SDS011;18905;42.668;23.364;2023-03-03T13:31:56;21.25;;;11.90;;
28625;SDS011;18905;42.668;23.364;2023-03-03T13:37:42;13.65;;;8.68;;
28625;SDS011;18905;42.668;23.364;2023-03-03T13:40:35;12.88;;;8.40;;
28625;SDS011;18905;42.668;23.364;2023-03-03T13:49:09;15.68;;;9.85;;
28625;SDS011;18905;42.668;23.364;2023-03-03T13:51:53;12.27;;;8.82;;
28625;SDS011;18905;42.668;23.364;2023-03-03T13:54:45;12.93;;;8.77;;
28625;SDS011;18905;42.668;23.364;2023-03-03T13:57:17;12.85;;;9.15;;
28625;SDS011;18905;42.668;23.364;2023-03-03T14:05:25;14.98;;;9.80;;
28625;SDS011;18905;42.668;23.364;2023-03-03T14:17:04;17.80;;;11.73;;
28625;SDS011;18905;42.668;23.364;2023-03-03T14:20:02;18.85;;;11.13;;
28625;SDS011;18905;42.668;23.364;2023-03-03T14:25:55;20.30;;;12.27;;
28625;SDS011;18905;42.668;23.364;2023-03-03T14:28:28;20.13;;;12.00;;
28625;SDS011;18905;42.668;23.364;2023-03-03T14:31:01;22.02;;;13.60;;
28625;SDS011;18905;42.668;23.364;2023-03-03T14:33:46;21.17;;;13.57;;
28625;SDS011;18905;42.668;23.364;2023-03-03T14:36:26;23.02;;;13.25;;
28625;SDS011;18905;42.668;23.364;2023-03-03T14:38:55;20.20;;;13.02;;
28625;SDS011;18905;42.668;23.364;2023-03-03T14:41:21;22.08;;;12.82;;
28625;SDS011;18905;42.668;23.364;2023-03-03T14:43:59;22.55;;;13.73;;
28625;SDS011;18905;42.668;23.364;2023-03-03T14:46:45;23.00;;;13.85;;
28625;SDS011;18905;42.668;23.364;2023-03-03T14:49:30;22.80;;;13.10;;
28625;SDS011;18905;42.668;23.364;2023-03-03T14:52:01;20.88;;;13.40;;
28625;SDS011;18905;42.668;23.364;2023-03-03T14:54:38;23.45;;;13.32;;
28625;SDS011;18905;42.668;23.364;2023-03-03T15:05:30;22.60;;;13.05;;
28625;SDS011;18905;42.668;23.364;2023-03-03T15:07:57;22.98;;;12.50;;
28625;SDS011;18905;42.668;23.364;2023-03-03T15:10:35;20.48;;;12.95;;
28625;SDS011;18905;42.668;23.364;2023-03-03T15:18:24;19.02;;;12.25;;
28625;SDS011;18905;42.668;23.364;2023-03-03T15:28:45;15.60;;;10.73;;
28625;SDS011;18905;42.668;23.364;2023-03-03T15:39:55;27.25;;;16.80;;
28625;SDS011;18905;42.668;23.364;2023-03-03T15:53:51;25.02;;;17.00;;
28625;SDS011;18905;42.668;23.364;2023-03-03T15:56:40;25.13;;;16.23;;
28625;SDS011;18905;42.668;23.364;2023-03-03T16:05:11;26.00;;;17.48;;
28625;SDS011;18905;42.668;23.364;2023-03-03T16:24:20;18.15;;;12.80;;
28625;SDS011;18905;42.668;23.364;2023-03-03T16:27:12;20.77;;;13.95;;
28625;SDS011;18905;42.668;23.364;2023-03-03T16:29:50;22.35;;;15.38;;
28625;SDS011;18905;42.668;23.364;2023-03-03T16:32:46;22.42;;;14.93;;
28625;SDS011;18905;42.668;23.364;2023-03-03T16:35:24;20.00;;;14.73;;
28625;SDS011;18905;42.668;23.364;2023-03-03T16:45:47;27.20;;;17.17;;
28625;SDS011;18905;42.668;23.364;2023-03-03T16:48:18;28.25;;;17.80;;
28625;SDS011;18905;42.668;23.364;2023-03-03T16:50:53;27.65;;;17.35;;
28625;SDS011;18905;42.668;23.364;2023-03-03T16:53:53;25.33;;;16.90;;
28625;SDS011;18905;42.668;23.364;2023-03-03T16:56:44;56.25;;;28.52;;
28625;SDS011;18905;42.668;23.364;2023-03-03T17:02:11;31.95;;;17.90;;
28625;SDS011;18905;42.668;23.364;2023-03-03T17:04:50;23.48;;;14.05;;
28625;SDS011;18905;42.668;23.364;2023-03-03T17:10:18;19.73;;;11.68;;
28625;SDS011;18905;42.668;23.364;2023-03-03T17:18:11;9.35;;;5.78;;
28625;SDS011;18905;42.668;23.364;2023-03-03T17:20:45;8.52;;;6.28;;
28625;SDS011;18905;42.668;23.364;2023-03-03T17:23:34;7.90;;;6.05;;
28625;SDS011;18905;42.668;23.364;2023-03-03T17:26:18;10.25;;;6.03;;
28625;SDS011;18905;42.668;23.364;2023-03-03T17:34:36;10.43;;;7.82;;
28625;SDS011;18905;42.668;23.364;2023-03-03T17:45:40;12.73;;;9.27;;
28625;SDS011;18905;42.668;23.364;2023-03-03T17:48:11;11.35;;;8.65;;
28625;SDS011;18905;42.668;23.364;2023-03-03T17:56:51;12.75;;;9.40;;
28625;SDS011;18905;42.668;23.364;2023-03-03T18:16:25;20.15;;;13.50;;
28625;SDS011;18905;42.668;23.364;2023-03-03T18:24:35;22.65;;;13.05;;
28625;SDS011;18905;42.668;23.364;2023-03-03T18:27:12;18.58;;;11.90;;
28625;SDS011;18905;42.668;23.364;2023-03-03T18:35:23;21.02;;;12.90;;
28625;SDS011;18905;42.668;23.364;2023-03-03T18:37:51;19.63;;;12.23;;
28625;SDS011;18905;42.668;23.364;2023-03-03T18:42:58;18.05;;;12.02;;
28625;SDS011;18905;42.668;23.364;2023-03-03T18:46:02;22.17;;;12.13;;
28625;SDS011;18905;42.668;23.364;2023-03-03T18:54:57;22.02;;;12.43;;
28625;SDS011;18905;42.668;23.364;2023-03-03T19:04:54;21.13;;;12.00;;
28625;SDS011;18905;42.668;23.364;2023-03-03T19:10:09;21.55;;;13.43;;
28625;SDS011;18905;42.668;23.364;2023-03-03T19:16:03;21.92;;;12.90;;
28625;SDS011;18905;42.668;23.364;2023-03-03T19:29:15;28.45;;;16.10;;
28625;SDS011;18905;42.668;23.364;2023-03-03T19:49:12;24.73;;;13.70;;
28625;SDS011;18905;42.668;23.364;2023-03-03T19:57:15;20.05;;;10.88;;
28625;SDS011;18905;42.668;23.364;2023-03-03T20:11:31;19.10;;;11.02;;
28625;SDS011;18905;42.668;23.364;2023-03-03T20:14:34;17.38;;;10.32;;
28625;SDS011;18905;42.668;23.364;2023-03-03T20:25:24;16.73;;;10.43;;
28625;SDS011;18905;42.668;23.364;2023-03-03T20:28:10;18.65;;;11.00;;
28625;SDS011;18905;42.668;23.364;2023-03-03T20:30:46;20.02;;;9.95;;
28625;SDS011;18905;42.668;23.364;2023-03-03T20:39:34;12.98;;;8.30;;
28625;SDS011;18905;42.668;23.364;2023-03-03T20:42:16;12.25;;;8.48;;
28625;SDS011;18905;42.668;23.364;2023-03-03T20:51:10;11.63;;;7.78;;
28625;SDS011;18905;42.668;23.364;2023-03-03T20:56:23;18.30;;;9.82;;
28625;SDS011;18905;42.668;23.364;2023-03-03T20:59:16;15.55;;;9.48;;
28625;SDS011;18905;42.668;23.364;2023-03-03T21:05:13;13.75;;;8.13;;
28625;SDS011;18905;42.668;23.364;2023-03-03T21:08:04;17.35;;;8.38;;
28625;SDS011;18905;42.668;23.364;2023-03-03T21:10:32;13.38;;;7.95;;
28625;SDS011;18905;42.668;23.364;2023-03-03T21:15:53;12.60;;;8.05;;
28625;SDS011;18905;42.668;23.364;2023-03-03T21:18:25;16.70;;;9.77;;
28625;SDS011;18905;42.668;23.364;2023-03-03T21:20:51;12.40;;;8.60;;
28625;SDS011;18905;42.668;23.364;2023-03-03T21:23:17;10.90;;;7.82;;
28625;SDS011;18905;42.668;23.364;2023-03-03T21:25:49;15.90;;;9.00;;
28625;SDS011;18905;42.668;23.364;2023-03-03T21:28:20;11.30;;;7.53;;
28625;SDS011;18905;42.668;23.364;2023-03-03T21:33:43;10.45;;;7.82;;
28625;SDS011;18905;42.668;23.364;2023-03-03T21:36:09;14.20;;;8.65;;
28625;SDS011;18905;42.668;23.364;2023-03-03T21:38:36;13.23;;;8.40;;
28625;SDS011;18905;42.668;23.364;2023-03-03T21:41:03;14.40;;;8.35;;
28625;SDS011;18905;42.668;23.364;2023-03-03T21:46:02;14.57;;;8.38;;
28625;SDS011;18905;42.668;23.364;2023-03-03T21:48:27;13.70;;;8.13;;
28625;SDS011;18905;42.668;23.364;2023-03-03T21:50:53;11.60;;;7.93;;
28625;SDS011;18905;42.668;23.364;2023-03-03T21:53:19;12.95;;;8.82;;
28625;SDS011;18905;42.668;23.364;2023-03-03T21:55:45;14.55;;;8.70;;
28625;SDS011;18905;42.668;23.364;2023-03-03T21:58:14;16.73;;;9.85;;
28625;SDS011;18905;42.668;23.364;2023-03-03T22:00:40;14.25;;;9.77;;
28625;SDS011;18905;42.668;23.364;2023-03-03T22:03:06;13.63;;;9.00;;